Time;durP1;ratioP1;P1;durP2;ratioP2;P2;SDS_P1;SDS_P2;PMS_P1;PMS_P2;Temp;Humidity;BMP_temperature;BMP_pressure;BME280_temperature;BME280_humidity;BME280_pressure;Samples;Min_cycle;Max_cycle;Signal;HPM_P1;HPM_P2
2021/01/15 00:00:56;;;;;;;10.07;7.00;;;2.00;99.90;;;;;;5011821;28;20631;-82
2021/01/15 00:03:21;;;;;;;9.93;7.13;;;2.00;99.90;;;;;;5013852;28;20244;-81
2021/01/15 00:05:47;;;;;;;10.03;6.73;;;1.90;99.90;;;;;;5030370;28;20264;-83
2021/01/15 00:08:13;;;;;;;11.20;5.83;;;1.90;99.90;;;;;;5015075;28;20189;-84
2021/01/15 00:10:38;;;;;;;9.00;6.50;;;1.90;99.90;;;;;;5030136;28;20314;-84
2021/01/15 00:13:04;;;;;;;10.17;7.07;;;1.90;99.90;;;;;;5014834;28;20166;-84
2021/01/15 00:15:30;;;;;;;10.30;7.70;;;1.80;99.90;;;;;;5030226;28;20166;-82
2021/01/15 00:17:55;;;;;;;10.10;6.93;;;1.80;99.90;;;;;;5014824;28;20694;-84
2021/01/15 00:20:21;;;;;;;12.07;7.53;;;1.80;99.90;;;;;;5014675;28;20166;-81
2021/01/15 00:22:46;;;;;;;9.70;6.93;;;1.80;99.90;;;;;;5014746;28;20679;-85
2021/01/15 00:25:12;;;;;;;10.70;6.63;;;1.80;99.90;;;;;;5013538;28;20279;-85
2021/01/15 00:27:39;;;;;;;11.33;6.70;;;1.80;99.90;;;;;;5012866;28;20174;-84
2021/01/15 00:30:09;;;;;;;14.37;7.77;;;1.70;99.90;;;;;;5003741;28;20218;-85
2021/01/15 00:32:38;;;;;;;10.90;7.20;;;1.70;99.90;;;;;;4999852;28;20175;-81
2021/01/15 00:35:06;;;;;;;11.37;7.67;;;1.70;99.90;;;;;;4994819;28;20171;-82
2021/01/15 00:37:32;;;;;;;11.20;7.03;;;1.70;99.90;;;;;;4993764;28;20279;-86
2021/01/15 00:39:58;;;;;;;9.97;7.53;;;1.60;99.90;;;;;;4994623;28;20253;-83
2021/01/15 00:42:24;;;;;;;12.47;7.07;;;1.60;99.90;;;;;;4995033;28;20214;-84
2021/01/15 00:44:50;;;;;;;12.07;7.50;;;1.60;99.90;;;;;;4994819;28;20175;-83
2021/01/15 00:47:16;;;;;;;13.63;8.53;;;1.60;99.90;;;;;;4993361;28;20179;-81
2021/01/15 00:49:41;;;;;;;9.63;7.30;;;1.60;99.90;;;;;;4993079;28;20237;-85
2021/01/15 00:52:07;;;;;;;10.17;7.70;;;1.70;99.90;;;;;;4994388;28;20187;-85
2021/01/15 00:54:33;;;;;;;11.03;7.03;;;1.60;99.90;;;;;;4993023;28;20179;-81
2021/01/15 00:57:02;;;;;;;10.93;7.03;;;1.60;99.90;;;;;;4993370;28;20215;-81
2021/01/15 00:59:28;;;;;;;12.00;7.03;;;1.60;99.90;;;;;;4998878;28;20174;-84
2021/01/15 01:01:53;;;;;;;13.33;8.27;;;1.50;99.90;;;;;;5029366;28;20174;-84
2021/01/15 01:04:19;;;;;;;12.57;8.00;;;1.50;99.90;;;;;;5029234;28;20237;-84
2021/01/15 01:06:45;;;;;;;11.60;8.27;;;1.50;99.90;;;;;;5014021;28;20198;-81
2021/01/15 01:09:10;;;;;;;10.57;6.77;;;1.50;99.90;;;;;;5014154;28;20233;-84
2021/01/15 01:11:36;;;;;;;13.80;7.67;;;1.50;99.90;;;;;;5029696;28;20170;-84
2021/01/15 01:14:06;;;;;;;11.00;7.93;;;1.60;99.90;;;;;;5013856;28;20254;-82
2021/01/15 01:16:32;;;;;;;13.30;8.83;;;1.40;99.90;;;;;;5029224;28;20174;-83
2021/01/15 01:18:58;;;;;;;14.70;8.97;;;1.50;99.90;;;;;;5029193;28;20174;-83
2021/01/15 01:21:25;;;;;;;11.57;7.50;;;1.50;99.90;;;;;;5014075;28;20194;-84
2021/01/15 01:23:52;;;;;;;10.73;7.33;;;1.50;99.90;;;;;;5013624;28;20261;-83
2021/01/15 01:26:18;;;;;;;11.83;8.47;;;1.50;99.90;;;;;;5013869;28;20245;-85
2021/01/15 01:28:45;;;;;;;11.83;9.63;;;1.40;99.90;;;;;;5029345;28;20178;-85
2021/01/15 01:31:11;;;;;;;16.47;10.20;;;1.40;99.90;;;;;;5028581;28;20182;-84
2021/01/15 01:33:37;;;;;;;13.43;9.33;;;1.40;99.90;;;;;;5013889;28;20229;-80
2021/01/15 01:36:05;;;;;;;11.23;7.83;;;1.40;99.90;;;;;;5033993;28;20579;-79
2021/01/15 01:38:31;;;;;;;16.77;11.37;;;1.50;99.90;;;;;;5041262;28;20178;-82
2021/01/15 01:40:58;;;;;;;13.87;10.60;;;1.50;99.90;;;;;;5014385;28;20177;-83
2021/01/15 01:43:24;;;;;;;11.13;8.47;;;1.40;99.90;;;;;;5012767;28;20213;-83
2021/01/15 01:45:50;;;;;;;13.40;8.87;;;1.40;99.90;;;;;;5028826;28;20173;-84
2021/01/15 01:48:16;;;;;;;14.77;8.60;;;1.40;99.90;;;;;;5013901;28;20175;-82
2021/01/15 01:50:43;;;;;;;12.07;9.17;;;1.40;99.90;;;;;;5013170;28;20218;-84
2021/01/15 01:53:14;;;;;;;15.43;9.67;;;1.40;99.90;;;;;;5014040;28;20193;-84
2021/01/15 01:55:41;;;;;;;11.77;8.37;;;1.40;99.90;;;;;;5029307;28;20219;-84
2021/01/15 01:58:07;;;;;;;13.53;8.67;;;1.40;99.90;;;;;;5013628;28;20162;-84
2021/01/15 02:00:38;;;;;;;14.40;9.07;;;1.40;99.90;;;;;;5028422;28;20265;-85
2021/01/15 02:03:04;;;;;;;10.87;8.03;;;1.40;99.90;;;;;;5012422;28;20178;-85
2021/01/15 02:05:29;;;;;;;13.63;9.00;;;1.40;99.90;;;;;;5013202;28;20170;-80
2021/01/15 02:07:55;;;;;;;12.00;8.10;;;1.40;99.90;;;;;;5012237;28;20179;-84
2021/01/15 02:10:32;;;;;;;12.77;8.50;;;1.40;99.90;;;;;;5012096;28;20206;-85
2021/01/15 02:13:06;;;;;;;10.03;7.60;;;1.40;99.90;;;;;;5011952;28;20261;-84
2021/01/15 02:15:51;;;;;;;10.73;7.77;;;1.40;99.90;;;;;;5012152;28;20173;-86
2021/01/15 02:18:37;;;;;;;12.40;8.00;;;1.40;99.90;;;;;;5013366;28;20170;-86
2021/01/15 02:21:40;;;;;;;12.20;8.93;;;1.40;99.90;;;;;;5014494;28;20557;-81
2021/01/15 02:24:27;;;;;;;13.33;8.77;;;1.40;99.90;;;;;;5016335;28;20227;-84
2021/01/15 02:27:31;;;;;;;13.87;9.10;;;1.30;99.90;;;;;;5017163;28;20166;-85
2021/01/15 02:30:31;;;;;;;14.10;8.80;;;1.30;99.90;;;;;;5016027;28;20213;-84
2021/01/15 02:33:26;;;;;;;10.20;7.27;;;1.30;99.90;;;;;;5017765;28;20178;-85
2021/01/15 02:36:21;;;;;;;10.30;7.40;;;1.30;99.90;;;;;;5018263;28;20248;-85
2021/01/15 02:39:10;;;;;;;10.47;7.73;;;1.30;99.90;;;;;;5015762;28;20200;-86
2021/01/15 02:41:36;;;;;;;13.37;7.60;;;1.30;99.90;;;;;;5017051;28;20209;-85
2021/01/15 02:44:05;;;;;;;10.40;7.27;;;1.30;99.90;;;;;;5015013;28;20213;-84
2021/01/15 02:46:46;;;;;;;15.00;7.37;;;1.30;99.90;;;;;;5016754;28;20261;-86
2021/01/15 02:49:13;;;;;;;14.27;9.23;;;1.20;99.90;;;;;;5016575;28;20213;-85
2021/01/15 02:51:42;;;;;;;11.47;7.60;;;1.20;99.90;;;;;;5015442;28;20191;-80
2021/01/15 02:54:08;;;;;;;14.93;8.27;;;1.20;99.90;;;;;;5015507;28;20267;-84
2021/01/15 02:56:36;;;;;;;11.73;8.10;;;1.20;99.90;;;;;;5016492;28;20166;-84
2021/01/15 02:59:03;;;;;;;12.93;9.40;;;1.20;99.90;;;;;;5015111;28;20174;-84
2021/01/15 03:01:36;;;;;;;11.73;8.97;;;1.20;99.90;;;;;;5031543;28;20208;-81
2021/01/15 03:04:26;;;;;;;15.13;9.63;;;1.20;99.90;;;;;;5016503;28;20175;-86
2021/01/15 03:06:58;;;;;;;13.70;7.10;;;1.20;99.90;;;;;;5014883;28;20212;-81
2021/01/15 03:09:27;;;;;;;11.33;8.10;;;1.20;99.90;;;;;;5031427;28;20210;-86
2021/01/15 03:11:53;;;;;;;12.90;9.33;;;1.10;99.90;;;;;;5031413;28;20174;-81
2021/01/15 03:14:20;;;;;;;15.30;11.70;;;1.20;99.90;;;;;;5031486;28;20175;-83
2021/01/15 03:16:47;;;;;;;14.30;10.40;;;1.10;99.90;;;;;;5016459;28;20166;-82
2021/01/15 03:19:14;;;;;;;15.20;9.60;;;1.20;99.90;;;;;;5014713;28;20170;-83
2021/01/15 03:21:39;;;;;;;17.97;12.27;;;1.10;99.90;;;;;;5016391;28;20198;-84
2021/01/15 03:24:08;;;;;;;19.07;13.40;;;1.20;99.90;;;;;;5016137;28;20181;-83
2021/01/15 03:26:34;;;;;;;15.47;10.97;;;1.10;99.90;;;;;;5016041;28;20635;-83
2021/01/15 03:29:00;;;;;;;18.43;13.17;;;1.10;99.90;;;;;;5015932;28;20198;-84
2021/01/15 03:31:26;;;;;;;21.47;13.27;;;1.10;99.90;;;;;;5014921;28;20245;-82
2021/01/15 03:33:51;;;;;;;16.27;11.93;;;1.10;99.90;;;;;;5014549;28;20662;-80
2021/01/15 03:36:17;;;;;;;21.07;13.77;;;1.10;99.90;;;;;;5014711;28;20525;-81
2021/01/15 03:38:43;;;;;;;22.83;14.43;;;1.10;99.90;;;;;;5015855;28;20321;-85
2021/01/15 03:41:09;;;;;;;25.37;15.47;;;1.10;99.90;;;;;;5014473;28;20536;-83
2021/01/15 03:43:35;;;;;;;20.60;13.17;;;1.10;99.90;;;;;;5015686;28;20178;-80
2021/01/15 03:46:01;;;;;;;23.13;15.60;;;1.10;99.90;;;;;;5014509;28;20170;-80
2021/01/15 03:48:27;;;;;;;23.23;15.30;;;1.20;99.90;;;;;;5015779;28;20224;-83
2021/01/15 03:50:53;;;;;;;21.37;13.97;;;1.10;99.90;;;;;;5014507;28;20225;-85
2021/01/15 03:53:19;;;;;;;21.20;15.23;;;1.10;99.90;;;;;;5014385;28;20178;-81
2021/01/15 03:55:45;;;;;;;20.37;13.63;;;1.10;99.90;;;;;;5014476;28;20265;-85
2021/01/15 03:58:11;;;;;;;23.00;15.70;;;1.10;99.90;;;;;;5014411;28;20170;-83
2021/01/15 04:00:37;;;;;;;22.73;15.80;;;1.20;99.90;;;;;;5014406;28;20178;-84
2021/01/15 04:03:03;;;;;;;21.57;15.13;;;1.20;99.90;;;;;;5014040;28;20171;-85
2021/01/15 04:05:29;;;;;;;21.50;15.13;;;1.30;99.90;;;;;;5014176;28;20217;-81
2021/01/15 04:07:55;;;;;;;24.13;14.07;;;1.20;99.90;;;;;;5014253;28;20217;-85
2021/01/15 04:10:21;;;;;;;24.13;15.03;;;1.20;99.90;;;;;;5015075;28;20234;-85
2021/01/15 04:12:47;;;;;;;20.07;14.93;;;1.20;99.90;;;;;;5013946;28;20171;-84
2021/01/15 04:15:17;;;;;;;24.27;15.77;;;1.20;99.90;;;;;;5014093;28;20240;-83
2021/01/15 04:17:44;;;;;;;20.57;14.23;;;1.20;99.90;;;;;;5015326;28;20194;-84
2021/01/15 04:20:11;;;;;;;22.20;14.47;;;1.20;99.90;;;;;;5013916;28;20190;-84
2021/01/15 04:22:45;;;;;;;20.00;14.80;;;1.20;99.90;;;;;;5013991;28;20264;-84
2021/01/15 04:25:12;;;;;;;18.20;13.17;;;1.20;99.90;;;;;;5014061;28;20167;-85
2021/01/15 04:27:38;;;;;;;21.80;14.43;;;1.20;99.90;;;;;;5035614;28;20370;-83
2021/01/15 04:30:06;;;;;;;22.10;14.10;;;1.20;99.90;;;;;;5029535;28;20202;-83
2021/01/15 04:32:33;;;;;;;19.90;13.13;;;1.10;99.90;;;;;;5016147;28;20193;-84
2021/01/15 04:35:03;;;;;;;22.80;13.93;;;1.20;99.90;;;;;;5015473;28;20167;-83
2021/01/15 04:37:28;;;;;;;19.43;13.67;;;1.20;99.90;;;;;;5015119;28;20170;-84
2021/01/15 04:39:54;;;;;;;20.87;13.47;;;1.20;99.90;;;;;;5014617;28;20233;-85
2021/01/15 04:42:23;;;;;;;21.57;13.47;;;1.20;99.90;;;;;;5013001;28;20642;-85
2021/01/15 04:44:48;;;;;;;20.13;13.17;;;1.20;99.90;;;;;;5013386;28;20182;-83
2021/01/15 04:47:15;;;;;;;20.00;12.30;;;1.20;99.90;;;;;;5013494;28;20178;-81
2021/01/15 04:49:41;;;;;;;18.27;12.70;;;1.20;99.90;;;;;;5014288;28;20701;-84
2021/01/15 04:52:14;;;;;;;17.33;11.70;;;1.20;99.90;;;;;;5014781;28;20202;-84
2021/01/15 04:54:42;;;;;;;19.00;13.07;;;1.20;99.90;;;;;;5013281;28;20224;-84
2021/01/15 04:57:12;;;;;;;16.33;11.43;;;1.20;99.90;;;;;;5014545;28;20167;-85
2021/01/15 04:59:47;;;;;;;18.17;12.70;;;1.20;99.90;;;;;;5013319;28;20221;-85
2021/01/15 05:02:17;;;;;;;17.20;12.40;;;1.20;99.90;;;;;;5017922;28;20197;-86
2021/01/15 05:04:44;;;;;;;15.67;11.63;;;1.20;99.90;;;;;;5013283;28;20659;-86
2021/01/15 05:07:11;;;;;;;19.23;11.47;;;1.20;99.90;;;;;;5012941;28;20178;-84
2021/01/15 05:09:45;;;;;;;18.60;11.93;;;1.20;99.90;;;;;;5012823;28;20693;-80
2021/01/15 05:12:13;;;;;;;16.33;11.17;;;1.20;99.90;;;;;;5013159;28;20227;-85
2021/01/15 05:14:42;;;;;;;18.47;12.13;;;1.20;99.90;;;;;;5012771;28;20206;-81
2021/01/15 05:17:08;;;;;;;17.43;11.80;;;1.20;99.90;;;;;;5014067;28;20257;-86
2021/01/15 05:19:41;;;;;;;15.87;11.80;;;1.20;99.90;;;;;;5012394;28;20649;-86
2021/01/15 05:22:14;;;;;;;16.77;11.20;;;1.20;99.90;;;;;;5012169;28;20568;-86
2021/01/15 05:24:40;;;;;;;17.20;11.33;;;1.20;99.90;;;;;;5013802;28;20198;-83
2021/01/15 05:30:14;;;;;;;16.77;11.90;;;1.30;99.90;;;;;;5014009;28;20317;-85
2021/01/15 05:32:40;;;;;;;16.50;11.00;;;1.30;99.90;;;;;;5012798;28;20178;-84
2021/01/15 05:35:06;;;;;;;15.37;10.57;;;1.40;99.90;;;;;;5014646;28;20170;-84
2021/01/15 05:37:33;;;;;;;17.50;10.63;;;1.40;99.90;;;;;;5012390;28;20174;-83
2021/01/15 05:39:59;;;;;;;16.73;11.57;;;1.40;99.90;;;;;;5013712;28;20170;-84
2021/01/15 05:42:24;;;;;;;16.73;12.00;;;1.30;99.90;;;;;;5014228;28;20221;-84
2021/01/15 05:44:50;;;;;;;16.40;11.23;;;1.30;99.90;;;;;;5012769;28;20170;-84
2021/01/15 05:47:16;;;;;;;17.30;10.97;;;1.40;99.90;;;;;;5012544;28;20174;-85
2021/01/15 05:50:00;;;;;;;16.90;11.83;;;1.40;99.90;;;;;;5012436;28;20301;-85
2021/01/15 05:52:25;;;;;;;18.40;12.03;;;1.50;99.90;;;;;;5012251;28;20197;-86
2021/01/15 05:54:54;;;;;;;16.47;12.17;;;1.50;99.90;;;;;;5013343;28;20158;-83
2021/01/15 05:57:26;;;;;;;15.30;11.07;;;1.40;99.90;;;;;;5012541;28;20185;-85
2021/01/15 05:59:52;;;;;;;16.40;11.77;;;1.40;99.90;;;;;;5013437;28;20253;-84
2021/01/15 06:02:17;;;;;;;15.00;10.63;;;1.50;99.90;;;;;;5012486;28;20206;-86
2021/01/15 06:04:43;;;;;;;18.47;13.63;;;1.50;99.90;;;;;;5013379;28;20173;-87
2021/01/15 06:07:09;;;;;;;16.70;11.77;;;1.50;99.90;;;;;;5013538;28;20234;-82
2021/01/15 06:10:03;;;;;;;15.77;11.07;;;1.50;99.90;;;;;;5013127;28;20698;-85
2021/01/15 06:12:54;;;;;;;16.37;11.07;;;1.50;99.90;;;;;;5013253;28;20198;-83
2021/01/15 06:15:20;;;;;;;14.57;11.10;;;1.40;99.90;;;;;;5013320;28;20173;-84
2021/01/15 06:17:52;;;;;;;17.03;11.37;;;1.40;99.90;;;;;;5012245;28;20182;-85
2021/01/15 06:20:22;;;;;;;16.97;11.23;;;1.50;99.90;;;;;;5013179;28;20174;-85
2021/01/15 06:22:57;;;;;;;16.17;10.90;;;1.50;99.90;;;;;;5011729;28;20202;-85
2021/01/15 06:25:28;;;;;;;17.67;12.37;;;1.40;99.90;;;;;;5012113;28;20170;-85
2021/01/15 06:27:59;;;;;;;15.33;10.93;;;1.50;99.90;;;;;;5012103;28;20588;-84
2021/01/15 06:30:27;;;;;;;14.93;11.20;;;1.50;99.90;;;;;;5012063;28;20225;-86
2021/01/15 06:32:54;;;;;;;16.67;10.87;;;1.50;99.90;;;;;;5013400;28;20166;-86
2021/01/15 06:35:25;;;;;;;13.67;10.70;;;1.50;99.90;;;;;;5012192;28;20209;-83
2021/01/15 06:38:01;;;;;;;17.13;11.23;;;1.50;99.90;;;;;;5011903;28;20285;-83
2021/01/15 06:40:31;;;;;;;13.27;10.17;;;1.60;99.90;;;;;;5012762;28;20518;-84
2021/01/15 06:42:58;;;;;;;18.53;11.33;;;1.60;99.90;;;;;;5011309;28;20202;-83
2021/01/15 06:45:24;;;;;;;14.63;10.73;;;1.60;99.90;;;;;;5005444;28;20179;-85
2021/01/15 06:47:53;;;;;;;16.43;11.60;;;1.60;99.90;;;;;;4999000;28;20205;-81
2021/01/15 06:50:19;;;;;;;14.97;10.33;;;1.60;99.90;;;;;;4993058;28;20226;-81
2021/01/15 06:52:50;;;;;;;13.93;10.00;;;1.60;99.90;;;;;;4994954;28;20209;-80
2021/01/15 06:55:18;;;;;;;13.67;9.80;;;1.50;99.90;;;;;;4995628;28;20262;-84
2021/01/15 06:57:55;;;;;;;14.50;10.63;;;1.50;99.90;;;;;;4993494;28;20253;-84
2021/01/15 07:00:22;;;;;;;16.27;10.80;;;1.50;99.90;;;;;;4993543;28;20230;-86
2021/01/15 07:03:24;;;;;;;17.70;11.47;;;1.50;99.90;;;;;;4991583;28;20186;-82
2021/01/15 07:05:52;;;;;;;13.03;9.37;;;1.60;99.90;;;;;;5012258;28;20174;-83
2021/01/15 07:08:18;;;;;;;14.53;10.47;;;1.60;99.90;;;;;;5016346;28;20166;-83
2021/01/15 07:10:46;;;;;;;18.87;11.17;;;1.60;99.90;;;;;;5016827;28;20208;-85
2021/01/15 07:13:21;;;;;;;16.30;10.97;;;1.50;99.90;;;;;;5016240;28;20216;-82
2021/01/15 07:15:53;;;;;;;14.20;9.97;;;1.50;99.90;;;;;;5029169;28;20297;-81
2021/01/15 07:18:33;;;;;;;16.87;10.73;;;1.50;99.90;;;;;;5019523;28;20225;-81
2021/01/15 07:21:08;;;;;;;13.87;10.67;;;1.60;99.90;;;;;;5014117;28;20216;-82
2021/01/15 07:23:54;;;;;;;17.20;11.30;;;1.80;99.90;;;;;;5013635;28;20726;-80
2021/01/15 07:26:21;;;;;;;13.67;10.37;;;1.70;99.90;;;;;;5014304;28;20185;-85
2021/01/15 07:28:48;;;;;;;12.00;9.60;;;1.70;99.90;;;;;;5015095;28;20297;-82
2021/01/15 07:31:22;;;;;;;14.63;9.80;;;1.70;99.90;;;;;;5005711;28;20190;-84
2021/01/15 07:34:05;;;;;;;13.90;9.57;;;1.70;99.90;;;;;;5011663;28;20232;-85
2021/01/15 07:36:38;;;;;;;12.63;9.50;;;1.70;99.90;;;;;;5013667;28;20626;-85
2021/01/15 07:39:23;;;;;;;13.83;10.57;;;1.70;99.90;;;;;;5013466;28;20260;-85
2021/01/15 07:41:53;;;;;;;15.27;10.77;;;1.70;99.90;;;;;;5015786;28;20218;-82
2021/01/15 07:44:22;;;;;;;13.17;9.90;;;1.70;99.90;;;;;;5013439;28;20171;-82
2021/01/15 07:46:55;;;;;;;15.33;11.03;;;1.80;99.90;;;;;;5013231;28;20204;-83
2021/01/15 07:49:21;;;;;;;14.60;9.87;;;1.80;99.90;;;;;;5013970;28;20320;-84
2021/01/15 07:52:09;;;;;;;13.00;10.33;;;1.80;99.90;;;;;;5013245;28;20185;-82
2021/01/15 07:54:50;;;;;;;12.37;8.50;;;1.90;99.90;;;;;;5011340;28;20671;-83
2021/01/15 07:57:17;;;;;;;13.60;11.13;;;1.90;99.90;;;;;;5029676;28;20216;-84
2021/01/15 07:59:43;;;;;;;15.83;11.27;;;1.90;99.90;;;;;;5012825;28;20178;-81
2021/01/15 08:02:09;;;;;;;13.87;9.47;;;1.90;99.90;;;;;;5013261;28;20178;-83
2021/01/15 08:04:35;;;;;;;14.73;10.60;;;1.90;99.90;;;;;;5029415;28;20170;-85
2021/01/15 08:07:29;;;;;;;14.77;11.00;;;1.90;99.90;;;;;;5013910;28;20185;-83
2021/01/15 08:09:55;;;;;;;15.60;11.17;;;1.90;99.90;;;;;;4996535;28;20573;-84
2021/01/15 08:12:21;;;;;;;13.63;9.73;;;1.90;99.90;;;;;;5015248;28;20177;-87
2021/01/15 08:14:46;;;;;;;16.67;11.03;;;2.00;99.90;;;;;;5015042;28;20178;-83
2021/01/15 08:17:14;;;;;;;14.07;9.60;;;2.00;99.90;;;;;;5013460;28;20174;-84
2021/01/15 08:19:41;;;;;;;13.47;10.17;;;1.90;99.90;;;;;;4992972;28;20217;-82
2021/01/15 08:22:08;;;;;;;12.03;10.70;;;1.90;99.90;;;;;;5003874;28;20307;-84
2021/01/15 08:24:45;;;;;;;13.77;10.97;;;2.00;99.90;;;;;;5012513;28;20260;-82
2021/01/15 08:27:22;;;;;;;13.47;9.57;;;1.90;99.90;;;;;;5010395;28;20528;-83
2021/01/15 08:29:50;;;;;;;12.77;9.43;;;1.90;99.90;;;;;;5012356;28;20209;-84
2021/01/15 08:32:16;;;;;;;17.23;11.13;;;1.90;99.90;;;;;;5011710;28;20186;-84
2021/01/15 08:34:42;;;;;;;15.43;10.37;;;1.90;99.90;;;;;;5012063;28;20189;-85
2021/01/15 08:37:10;;;;;;;13.77;10.20;;;2.00;99.90;;;;;;5011631;28;20538;-84
2021/01/15 08:39:49;;;;;;;14.80;10.13;;;2.00;99.90;;;;;;5013332;28;20174;-83
2021/01/15 08:42:17;;;;;;;12.63;10.47;;;2.00;99.90;;;;;;5012360;28;20256;-84
2021/01/15 08:44:47;;;;;;;15.73;10.77;;;2.00;99.90;;;;;;5012823;28;20656;-84
2021/01/15 08:47:15;;;;;;;13.60;10.27;;;2.00;99.90;;;;;;5012121;28;20221;-84
2021/01/15 08:49:51;;;;;;;14.13;10.73;;;2.10;99.90;;;;;;5011989;28;20226;-83
2021/01/15 08:52:23;;;;;;;13.27;10.77;;;2.10;99.90;;;;;;5012272;28;20181;-83
2021/01/15 08:54:49;;;;;;;12.53;9.70;;;2.00;99.90;;;;;;5012183;28;20650;-81
2021/01/15 08:57:19;;;;;;;18.10;11.63;;;2.10;99.90;;;;;;5014217;28;20182;-86
2021/01/15 08:59:45;;;;;;;13.97;11.27;;;2.10;99.90;;;;;;5011945;28;20174;-84
2021/01/15 09:02:12;;;;;;;14.57;11.33;;;2.10;99.90;;;;;;5010665;28;20229;-82
2021/01/15 09:04:39;;;;;;;19.10;12.57;;;2.30;99.90;;;;;;5012888;28;20209;-86
2021/01/15 09:07:07;;;;;;;17.93;13.63;;;2.30;99.90;;;;;;5006296;28;20186;-85
2021/01/15 09:09:34;;;;;;;15.27;11.10;;;2.30;99.90;;;;;;5002590;28;20617;-82
2021/01/15 09:12:05;;;;;;;13.53;10.53;;;2.30;99.90;;;;;;5013203;28;20249;-86
2021/01/15 09:14:36;;;;;;;14.27;11.13;;;2.40;99.90;;;;;;5016874;28;20255;-83
2021/01/15 09:17:08;;;;;;;14.13;10.33;;;2.30;99.90;;;;;;5013833;28;20170;-85
2021/01/15 09:19:35;;;;;;;19.20;11.70;;;2.30;99.90;;;;;;5014611;28;20201;-87
2021/01/15 09:22:08;;;;;;;14.13;10.80;;;2.20;99.90;;;;;;5012994;28;20229;-84
2021/01/15 09:24:35;;;;;;;15.97;10.90;;;2.20;99.90;;;;;;5013584;28;20197;-85
2021/01/15 09:27:03;;;;;;;18.43;11.63;;;2.20;99.90;;;;;;5011120;28;20174;-84
2021/01/15 09:29:29;;;;;;;16.03;11.70;;;2.30;99.90;;;;;;5010255;28;20238;-81
2021/01/15 09:31:55;;;;;;;15.50;11.63;;;2.30;99.90;;;;;;5012938;28;20229;-85
2021/01/15 09:34:23;;;;;;;14.67;11.53;;;2.40;99.90;;;;;;5013650;28;20174;-84
2021/01/15 09:36:50;;;;;;;15.87;11.50;;;2.40;99.90;;;;;;5014802;28;20174;-83
2021/01/15 09:39:17;;;;;;;15.50;11.73;;;2.50;99.90;;;;;;5012614;28;20170;-81
2021/01/15 09:41:48;;;;;;;19.07;11.83;;;2.60;99.90;;;;;;5014229;28;20178;-82
2021/01/15 09:44:15;;;;;;;14.97;11.07;;;2.50;99.90;;;;;;5013300;28;20568;-84
2021/01/15 09:46:41;;;;;;;14.97;11.37;;;2.50;99.90;;;;;;5014562;28;20193;-86
2021/01/15 09:49:07;;;;;;;15.20;10.97;;;2.50;99.90;;;;;;5012038;28;20295;-85
2021/01/15 09:51:33;;;;;;;16.50;11.20;;;2.50;99.90;;;;;;5012779;28;20186;-85
2021/01/15 09:53:59;;;;;;;14.30;10.63;;;2.40;99.90;;;;;;5012912;28;20208;-85
2021/01/15 09:56:28;;;;;;;16.27;10.53;;;2.50;99.90;;;;;;5012671;28;20535;-85
2021/01/15 09:58:56;;;;;;;13.70;10.57;;;2.50;99.90;;;;;;5011553;28;20467;-86
2021/01/15 10:01:23;;;;;;;15.33;11.50;;;2.50;99.90;;;;;;4998948;28;20189;-84
2021/01/15 10:03:49;;;;;;;17.10;12.23;;;2.60;99.90;;;;;;5012887;28;20213;-85
2021/01/15 10:06:18;;;;;;;15.83;11.90;;;2.70;99.90;;;;;;5011504;28;20293;-82
2021/01/15 10:08:44;;;;;;;16.47;10.97;;;2.70;99.90;;;;;;5012385;28;20306;-84
2021/01/15 10:11:25;;;;;;;16.83;11.33;;;2.80;99.90;;;;;;5014184;28;20220;-82
2021/01/15 10:13:54;;;;;;;16.60;10.47;;;2.80;99.90;;;;;;5011742;28;20178;-82
2021/01/15 10:16:19;;;;;;;16.07;11.13;;;2.80;99.90;;;;;;5015144;28;20193;-82
2021/01/15 10:18:45;;;;;;;19.43;11.77;;;2.70;99.90;;;;;;5021114;28;20178;-83
2021/01/15 10:21:11;;;;;;;15.40;11.67;;;2.70;99.90;;;;;;5024380;28;20229;-82
2021/01/15 10:23:37;;;;;;;16.13;12.17;;;2.70;99.90;;;;;;5013333;28;20265;-84
2021/01/15 10:26:04;;;;;;;16.47;11.90;;;2.80;99.90;;;;;;5011165;28;20174;-82
2021/01/15 10:28:32;;;;;;;14.07;11.53;;;2.80;99.90;;;;;;5011182;28;20588;-83
2021/01/15 10:30:58;;;;;;;15.03;10.60;;;2.80;99.90;;;;;;5012229;28;20212;-86
2021/01/15 10:33:24;;;;;;;13.13;10.13;;;2.80;99.90;;;;;;5010826;28;20175;-82
2021/01/15 10:35:50;;;;;;;15.27;10.13;;;2.90;99.90;;;;;;5012171;28;20240;-83
2021/01/15 10:38:16;;;;;;;15.50;11.27;;;2.80;99.90;;;;;;5011930;28;20183;-81
2021/01/15 10:40:43;;;;;;;14.00;11.00;;;2.70;99.90;;;;;;5012090;28;20179;-88
2021/01/15 10:43:09;;;;;;;16.90;11.40;;;2.70;99.90;;;;;;5013859;28;20178;-86
2021/01/15 10:45:35;;;;;;;14.63;9.80;;;2.70;99.90;;;;;;5015825;28;20185;-84
2021/01/15 10:48:03;;;;;;;17.97;11.70;;;2.70;99.90;;;;;;5014559;28;20178;-85
2021/01/15 10:50:31;;;;;;;17.40;12.17;;;2.70;99.90;;;;;;5015688;28;20570;-82
2021/01/15 10:52:57;;;;;;;15.23;12.47;;;2.70;99.90;;;;;;5015628;28;20206;-85
2021/01/15 10:55:24;;;;;;;17.77;11.70;;;2.80;99.90;;;;;;5014583;28;20182;-85
2021/01/15 10:57:49;;;;;;;14.77;11.10;;;2.80;99.90;;;;;;5015723;28;20162;-83
2021/01/15 11:00:16;;;;;;;17.70;12.50;;;2.80;99.90;;;;;;5011757;28;20324;-83
2021/01/15 11:02:46;;;;;;;17.63;12.33;;;2.90;99.90;;;;;;5013960;28;20251;-84
2021/01/15 11:05:12;;;;;;;16.83;11.77;;;3.00;99.90;;;;;;5015636;28;20170;-83
2021/01/15 11:07:38;;;;;;;16.97;13.03;;;3.10;99.90;;;;;;5014720;28;20179;-87
2021/01/15 11:10:05;;;;;;;14.73;12.10;;;3.10;99.90;;;;;;5017904;28;20217;-86
2021/01/15 11:12:31;;;;;;;18.00;11.20;;;3.10;99.90;;;;;;5015441;28;20241;-85
2021/01/15 11:14:56;;;;;;;18.27;10.90;;;3.10;99.90;;;;;;5015704;28;20254;-82
2021/01/15 11:17:43;;;;;;;18.40;13.07;;;3.10;99.90;;;;;;5017214;28;20174;-86
2021/01/15 11:20:08;;;;;;;14.77;11.23;;;3.00;99.90;;;;;;5015064;28;20182;-85
2021/01/15 11:22:37;;;;;;;23.27;13.47;;;3.10;99.90;;;;;;5014817;28;20224;-82
2021/01/15 11:25:06;;;;;;;18.23;12.20;;;3.10;99.90;;;;;;5013641;28;20569;-87
2021/01/15 11:27:33;;;;;;;16.20;12.00;;;3.10;99.90;;;;;;5015308;28;20181;-84
2021/01/15 11:29:59;;;;;;;16.13;11.93;;;3.10;99.90;;;;;;5014054;28;20221;-85
2021/01/15 11:32:25;;;;;;;15.23;11.47;;;3.10;99.90;;;;;;5013614;28;20174;-86
2021/01/15 11:34:51;;;;;;;14.93;11.27;;;3.10;99.90;;;;;;4999665;28;20278;-84
2021/01/15 11:37:17;;;;;;;15.47;12.03;;;3.10;99.90;;;;;;5013212;28;20657;-86
2021/01/15 11:39:44;;;;;;;15.23;11.80;;;3.10;99.90;;;;;;5015936;28;20174;-85
2021/01/15 11:42:11;;;;;;;17.67;11.73;;;3.10;99.90;;;;;;5013577;28;20209;-87
2021/01/15 11:44:37;;;;;;;14.47;11.37;;;3.10;99.90;;;;;;5014746;28;20201;-84
2021/01/15 11:47:03;;;;;;;16.67;11.80;;;3.10;99.90;;;;;;5013382;28;20182;-82
2021/01/15 11:49:28;;;;;;;17.47;12.37;;;3.00;99.90;;;;;;5012526;28;20226;-85
2021/01/15 11:51:55;;;;;;;17.20;10.83;;;3.00;99.90;;;;;;5014185;28;20190;-85
2021/01/15 11:54:21;;;;;;;15.47;11.27;;;2.90;99.90;;;;;;5013958;28;20170;-84
2021/01/15 11:56:47;;;;;;;13.73;10.87;;;3.00;99.90;;;;;;5015524;28;20178;-86
2021/01/15 11:59:12;;;;;;;20.53;14.23;;;3.00;99.90;;;;;;5014357;28;20642;-85
2021/01/15 12:01:38;;;;;;;17.30;12.40;;;3.00;99.90;;;;;;4993391;28;20269;-80
2021/01/15 12:04:04;;;;;;;17.00;12.13;;;3.00;99.90;;;;;;5014291;28;20175;-82
2021/01/15 12:06:31;;;;;;;18.40;12.47;;;3.00;99.90;;;;;;5015159;28;20202;-84
2021/01/15 12:08:56;;;;;;;17.20;11.60;;;3.10;99.90;;;;;;5013468;28;20167;-83
2021/01/15 12:11:23;;;;;;;16.70;10.80;;;3.10;99.90;;;;;;5014616;28;20186;-85
2021/01/15 12:13:49;;;;;;;17.47;11.23;;;3.00;99.90;;;;;;5012969;28;20169;-83
2021/01/15 12:16:14;;;;;;;19.80;12.07;;;3.10;99.90;;;;;;5014949;28;20204;-85
2021/01/15 12:18:41;;;;;;;15.23;11.17;;;3.20;99.90;;;;;;5013923;28;20178;-85
2021/01/15 12:21:06;;;;;;;15.90;11.43;;;3.30;99.90;;;;;;5013157;28;20213;-86
2021/01/15 12:23:32;;;;;;;19.13;10.73;;;3.20;99.90;;;;;;5016913;28;20186;-86
2021/01/15 12:26:00;;;;;;;16.67;11.63;;;3.20;99.90;;;;;;5014464;28;20170;-85
2021/01/15 12:28:26;;;;;;;14.87;10.57;;;3.20;99.90;;;;;;5013544;28;20179;-84
2021/01/15 12:30:53;;;;;;;17.40;11.80;;;3.30;99.90;;;;;;5014038;28;20263;-86
2021/01/15 12:33:20;;;;;;;18.70;12.73;;;3.30;99.90;;;;;;5013953;28;20635;-84
2021/01/15 12:35:48;;;;;;;18.37;12.07;;;3.40;99.90;;;;;;5012338;28;20693;-86
2021/01/15 12:38:16;;;;;;;18.47;11.23;;;3.40;99.90;;;;;;4999103;28;20179;-84
2021/01/15 12:40:42;;;;;;;17.30;11.90;;;3.30;99.90;;;;;;4994226;28;20178;-83
2021/01/15 12:43:10;;;;;;;16.23;11.23;;;3.40;99.90;;;;;;4993852;28;20178;-84
2021/01/15 12:45:37;;;;;;;17.27;11.97;;;3.40;99.90;;;;;;4993892;28;20171;-84
2021/01/15 12:48:04;;;;;;;12.23;8.87;;;3.40;99.90;;;;;;4994047;28;20166;-84
2021/01/15 12:50:29;;;;;;;12.20;9.40;;;3.40;99.90;;;;;;4993733;28;20241;-82
2021/01/15 12:52:55;;;;;;;13.40;10.03;;;3.40;99.90;;;;;;4992304;28;20612;-84